Observation data for Sundown on 08/20/2019      Previous  Date       Current Mesonet Observations  Soil Data  Daily Summary Page  Observations in Plain Language
KSDS 200500Z 14008KT 29/12 A301 RMK A01 T02850120  RH  037%=      5-min Rain = 0
KSDS 200505Z 14009KT 29/12 A301 RMK A01 T02850121  RH  037%=      5-min Rain = 0
KSDS 200510Z 13008KT 28/12 A301 RMK A01 T02840121  RH  038%=      5-min Rain = 0
KSDS 200515Z 13008KT 28/12 A301 RMK A01 T02810122  RH  039%=      5-min Rain = 0
KSDS 200520Z 13009KT 28/12 A301 RMK A01 T02800124  RH  040%=      5-min Rain = 0
KSDS 200525Z 13009KT 28/13 A301 RMK A01 T02790126  RH  040%=      5-min Rain = 0
KSDS 200530Z 14010KT 28/13 A301 RMK A01 T02780127  RH  041%=      5-min Rain = 0
KSDS 200535Z 15011KT 28/13 A301 RMK A01 T02800127  RH  040%=      5-min Rain = 0
KSDS 200540Z 14011KT 28/13 A301 RMK A01 T02810127  RH  040%=      5-min Rain = 0
KSDS 200545Z 14011KT 28/13 A301 RMK A01 T02810127  RH  040%=      5-min Rain = 0
KSDS 200550Z 15011KT 28/13 A301 RMK A01 T02820128  RH  040%=      5-min Rain = 0
KSDS 200555Z 15012KT 28/13 A301 RMK A01 T02820128  RH  040%=      5-min Rain = 0
KSDS 200600Z 15011KT 28/13 A301 RMK A01 T02820129  RH  040%=      5-min Rain = 0
KSDS 200605Z 15011KT 28/13 A301 RMK A01 T02810129  RH  041%=      5-min Rain = 0
KSDS 200610Z 15011KT 28/13 A301 RMK A01 T02790129  RH  041%=      5-min Rain = 0
KSDS 200615Z 15011KT 28/13 A301 RMK A01 T02790130  RH  041%=      5-min Rain = 0
KSDS 200620Z 15011KT 28/13 A301 RMK A01 T02780130  RH  042%=      5-min Rain = 0
KSDS 200625Z 15011KT 28/13 A301 RMK A01 T02770131  RH  042%=      5-min Rain = 0
KSDS 200630Z 14012KT 28/13 A3009 RMK A01 T02770131  RH  042%=      5-min Rain = 0
KSDS 200635Z 15011KT 28/13 A301 RMK A01 T02760132  RH  043%=      5-min Rain = 0
KSDS 200640Z 15010KT 28/13 A301 RMK A01 T02750132  RH  043%=      5-min Rain = 0
KSDS 200645Z 15010KT 28/13 A301 RMK A01 T02750133  RH  043%=      5-min Rain = 0
KSDS 200650Z 15009KT 27/13 A301 RMK A01 T02740133  RH  044%=      5-min Rain = 0
KSDS 200655Z 16009KT 27/13 A301 RMK A01 T02730133  RH  044%=      5-min Rain = 0
KSDS 200700Z 16009KT 27/13 A301 RMK A01 T02720133  RH  044%=      5-min Rain = 0
KSDS 200705Z 16009KT 27/13 A301 RMK A01 T02720133  RH  044%=      5-min Rain = 0
KSDS 200710Z 17009G14KT 27/13 A301 RMK A01 T02720133  RH  044%=      5-min Rain = 0
KSDS 200715Z 17008KT 27/13 A301 RMK A01 T02710133  RH  044%=      5-min Rain = 0
KSDS 200720Z 18008KT 27/13 A301 RMK A01 T02690133  RH  045%=      5-min Rain = 0
KSDS 200725Z 17008KT 27/13 A301 RMK A01 T02680133  RH  045%=      5-min Rain = 0
KSDS 200730Z 17008KT 27/13 A301 RMK A01 T02680132  RH  045%=      5-min Rain = 0
KSDS 200735Z 17008KT 27/13 A301 RMK A01 T02670132  RH  045%=      5-min Rain = 0
KSDS 200740Z 17009KT 27/13 A301 RMK A01 T02660131  RH  045%=      5-min Rain = 0
KSDS 200745Z 17009KT 27/13 A301 RMK A01 T02650130  RH  045%=      5-min Rain = 0
KSDS 200750Z 17010KT 27/13 A301 RMK A01 T02650130  RH  045%=      5-min Rain = 0
KSDS 200755Z 17010KT 26/13 A301 RMK A01 T02630130  RH  045%=      5-min Rain = 0
KSDS 200800Z 17010KT 26/13 A3009 RMK A01 T02620130  RH  046%=      5-min Rain = 0
KSDS 200805Z 17010KT 26/13 A3009 RMK A01 T02620130  RH  046%=      5-min Rain = 0
KSDS 200810Z 16009KT 26/13 A3009 RMK A01 T02600130  RH  046%=      5-min Rain = 0
KSDS 200815Z 16010KT 26/13 A3009 RMK A01 T02600129  RH  046%=      5-min Rain = 0
KSDS 200820Z 16010KT 26/13 A3009 RMK A01 T02600129  RH  046%=      5-min Rain = 0
KSDS 200825Z 16010KT 26/13 A3009 RMK A01 T02590129  RH  046%=      5-min Rain = 0
KSDS 200830Z 16010KT 26/13 A3009 RMK A01 T02590129  RH  046%=      5-min Rain = 0
KSDS 200835Z 16011KT 26/13 A3009 RMK A01 T02580128  RH  046%=      5-min Rain = 0
KSDS 200840Z 16012KT 26/13 A3009 RMK A01 T02580128  RH  046%=      5-min Rain = 0
KSDS 200845Z 16013KT 26/13 A3009 RMK A01 T02580128  RH  046%=      5-min Rain = 0
KSDS 200850Z 16013KT 26/13 A3009 RMK A01 T02580127  RH  046%=      5-min Rain = 0
KSDS 200855Z 16014KT 26/13 A3009 RMK A01 T02580127  RH  046%=      5-min Rain = 0
KSDS 200900Z 17013KT 26/13 A3009 RMK A01 T02580127  RH  046%=      5-min Rain = 0
KSDS 200905Z 17012KT 26/13 A301 RMK A01 T02570127  RH  046%=      5-min Rain = 0
KSDS 200910Z 18010KT 26/13 A301 RMK A01 T02560127  RH  046%=      5-min Rain = 0
KSDS 200915Z 17009KT 26/13 A301 RMK A01 T02560126  RH  046%=      5-min Rain = 0
KSDS 200920Z 17009KT 26/13 A301 RMK A01 T02550126  RH  046%=      5-min Rain = 0
KSDS 200925Z 17009KT 26/13 A301 RMK A01 T02550126  RH  046%=      5-min Rain = 0
KSDS 200930Z 17009KT 25/13 A301 RMK A01 T02540126  RH  047%=      5-min Rain = 0
KSDS 200935Z 17009KT 25/13 A301 RMK A01 T02530126  RH  047%=      5-min Rain = 0
KSDS 200940Z 17010KT 25/13 A301 RMK A01 T02520127  RH  047%=      5-min Rain = 0
KSDS 200945Z 17010KT 25/13 A301 RMK A01 T02510127  RH  048%=      5-min Rain = 0
KSDS 200950Z 17009KT 25/13 A301 RMK A01 T02500127  RH  048%=      5-min Rain = 0
KSDS 200955Z 17008KT 25/13 A301 RMK A01 T02490127  RH  048%=      5-min Rain = 0
KSDS 201000Z 18007KT 25/13 A3011 RMK A01 T02480128  RH  049%=      5-min Rain = 0
KSDS 201005Z 19005KT 25/13 A3011 RMK A01 T02470128  RH  049%=      5-min Rain = 0
KSDS 201010Z 21003KT 25/13 A3011 RMK A01 T02470128  RH  049%=      5-min Rain = 0
KSDS 201015Z 28003KT 25/13 A3012 RMK A01 T02460128  RH  050%=      5-min Rain = 0
KSDS 201020Z 32004KT 24/13 A3012 RMK A01 T02420129  RH  051%=      5-min Rain = 0
KSDS 201025Z 31003KT 24/13 A3012 RMK A01 T02400129  RH  052%=      5-min Rain = 0
KSDS 201030Z 27002KT 24/13 A3012 RMK A01 T02410128  RH  051%=      5-min Rain = 0
KSDS 201035Z 22005KT 24/13 A3012 RMK A01 T02440128  RH  050%=      5-min Rain = 0
KSDS 201040Z 20007KT 25/13 A3012 RMK A01 T02450127  RH  050%=      5-min Rain = 0
KSDS 201045Z 20008KT 24/13 A3012 RMK A01 T02430127  RH  050%=      5-min Rain = 0
KSDS 201050Z 20007KT 24/13 A3012 RMK A01 T02410127  RH  051%=      5-min Rain = 0
KSDS 201055Z 21005KT 24/13 A3012 RMK A01 T02390127  RH  052%=      5-min Rain = 0
KSDS 201100Z 24004KT 24/13 A3013 RMK A01 T02350127  RH  053%=      5-min Rain = 0
KSDS 201105Z 30004KT 23/13 A3013 RMK A01 T02270128  RH  056%=      5-min Rain = 0
KSDS 201110Z 29005KT 22/13 A3013 RMK A01 T02210128  RH  058%=      5-min Rain = 0
KSDS 201115Z 28004KT 22/13 A3012 RMK A01 T02210128  RH  058%=      5-min Rain = 0
KSDS 201120Z 25004KT 22/13 A3012 RMK A01 T02210128  RH  058%=      5-min Rain = 0
KSDS 201125Z 23004KT 22/13 A3012 RMK A01 T02240128  RH  057%=      5-min Rain = 0
KSDS 201130Z 22006KT 22/13 A3012 RMK A01 T02230127  RH  057%=      5-min Rain = 0
KSDS 201135Z 21006KT 22/13 A3012 RMK A01 T02190127  RH  058%=      5-min Rain = 0
KSDS 201140Z 21007KT 22/13 A3012 RMK A01 T02190127  RH  058%=      5-min Rain = 0
KSDS 201145Z 21007KT 22/13 A3012 RMK A01 T02170128  RH  059%=      5-min Rain = 0
KSDS 201150Z 20007KT 22/13 A3012 RMK A01 T02150128  RH  060%=      5-min Rain = 0
KSDS 201155Z 20006KT 21/13 A3012 RMK A01 T02140129  RH  060%=      5-min Rain = 0
KSDS 201200Z 20006KT 21/13 A3013 RMK A01 T02100129  RH  062%=      5-min Rain = 0
KSDS 201205Z 21005KT 21/13 A3013 RMK A01 T02080129  RH  063%=      5-min Rain = 0
KSDS 201210Z 22005KT 21/13 A3013 RMK A01 T02070129  RH  064%=      5-min Rain = 0
KSDS 201215Z 22005KT 21/13 A3013 RMK A01 T02060129  RH  064%=      5-min Rain = 0
KSDS 201220Z 21006KT 21/13 A3013 RMK A01 T02060129  RH  064%=      5-min Rain = 0
KSDS 201225Z 21006KT 21/13 A3013 RMK A01 T02070129  RH  063%=      5-min Rain = 0
KSDS 201230Z 21006KT 21/13 A3014 RMK A01 T02070129  RH  063%=      5-min Rain = 0
KSDS 201235Z 22005KT 21/13 A3014 RMK A01 T02090129  RH  063%=      5-min Rain = 0
KSDS 201240Z 23005KT 21/13 A3014 RMK A01 T02120130  RH  062%=      5-min Rain = 0
KSDS 201245Z 23005KT 21/13 A3014 RMK A01 T02140130  RH  061%=      5-min Rain = 0
KSDS 201250Z 22005KT 22/13 A3014 RMK A01 T02180131  RH  060%=      5-min Rain = 0
KSDS 201255Z 21005KT 22/13 A3014 RMK A01 T02230132  RH  059%=      5-min Rain = 0
KSDS 201300Z 19005KT 23/13 A3014 RMK A01 T02270133  RH  058%=      5-min Rain = 0
KSDS 201305Z 18004KT 23/13 A3014 RMK A01 T02330134  RH  056%=      5-min Rain = 0
KSDS 201310Z 18005KT 24/14 A3014 RMK A01 T02400135  RH  054%=      5-min Rain = 0
KSDS 201315Z 19006KT 25/14 A3014 RMK A01 T02450136  RH  053%=      5-min Rain = 0
KSDS 201320Z 18006KT 25/14 A3015 RMK A01 T02490137  RH  052%=      5-min Rain = 0
KSDS 201325Z 18008KT 25/14 A3015 RMK A01 T02530138  RH  051%=      5-min Rain = 0
KSDS 201330Z 18008KT 25/14 A3015 RMK A01 T02540139  RH  051%=      5-min Rain = 0
KSDS 201335Z 17008KT 26/14 A3015 RMK A01 T02560139  RH  050%=      5-min Rain = 0
KSDS 201340Z 17009KT 26/14 A3015 RMK A01 T02640139  RH  048%=      5-min Rain = 0
KSDS 201345Z 18011G17KT 27/14 A3016 RMK A01 T02680139  RH  047%=      5-min Rain = 0
KSDS 201350Z 18011KT 27/14 A3015 RMK A01 T02700140  RH  047%=      5-min Rain = 0
KSDS 201355Z 18011KT 27/14 A3015 RMK A01 T02710142  RH  047%=      5-min Rain = 0
KSDS 201400Z 18011KT 27/15 A3015 RMK A01 T02740145  RH  047%=      5-min Rain = 0
KSDS 201405Z 19013KT 27/15 A3015 RMK A01 T02730148  RH  048%=      5-min Rain = 0
KSDS 201410Z 19012KT 27/15 A3015 RMK A01 T02730149  RH  049%=      5-min Rain = 0
KSDS 201415Z 19015KT 27/15 A3015 RMK A01 T02700150  RH  050%=      5-min Rain = 0
KSDS 201420Z 19013KT 27/15 A3015 RMK A01 T02680151  RH  051%=      5-min Rain = 0
KSDS 201425Z 19012G17KT 27/15 A3015 RMK A01 T02680151  RH  051%=      5-min Rain = 0
KSDS 201430Z 19013KT 28/15 A3015 RMK A01 T02750153  RH  050%=      5-min Rain = 0
KSDS 201435Z 19014G19KT 28/15 A3015 RMK A01 T02790153  RH  048%=      5-min Rain = 0
KSDS 201440Z 19013KT 28/15 A3015 RMK A01 T02760154  RH  050%=      5-min Rain = 0
KSDS 201445Z 19014KT 27/15 A3015 RMK A01 T02710154  RH  051%=      5-min Rain = 0
KSDS 201450Z 18013KT 27/16 A3015 RMK A01 T02710155  RH  051%=      5-min Rain = 0
KSDS 201455Z 19012KT 27/16 A3015 RMK A01 T02720156  RH  052%=      5-min Rain = 0
KSDS 201500Z 19014KT 27/16 A3015 RMK A01 T02720156  RH  051%=      5-min Rain = 0
KSDS 201505Z 20013KT 27/16 A3015 RMK A01 T02720156  RH  051%=      5-min Rain = 0
KSDS 201510Z 19011KT 27/16 A3015 RMK A01 T02740156  RH  051%=      5-min Rain = 0
KSDS 201515Z 19011KT 28/16 A3015 RMK A01 T02760157  RH  051%=      5-min Rain = 0
KSDS 201520Z 19012KT 28/16 A3015 RMK A01 T02760157  RH  050%=      5-min Rain = 0
KSDS 201525Z 19012KT 28/16 A3015 RMK A01 T02760156  RH  050%=      5-min Rain = 0
KSDS 201530Z 20011KT 28/16 A3016 RMK A01 T02770157  RH  050%=      5-min Rain = 0
KSDS 201535Z 19010G15KT 28/16 A3016 RMK A01 T02790157  RH  050%=      5-min Rain = 0
KSDS 201540Z 20010KT 28/16 A3016 RMK A01 T02790157  RH  050%=      5-min Rain = 0
KSDS 201545Z 20011KT 28/16 A3016 RMK A01 T02800155  RH  049%=      5-min Rain = 0
KSDS 201550Z 19011KT 28/16 A3016 RMK A01 T02810156  RH  049%=      5-min Rain = 0
KSDS 201555Z 19009KT 28/16 A3016 RMK A01 T02820157  RH  049%=      5-min Rain = 0
KSDS 201600Z 19009G14KT 29/16 A3016 RMK A01 T02850157  RH  048%=      5-min Rain = 0
KSDS 201605Z 20010KT 29/16 A3016 RMK A01 T02860156  RH  047%=      5-min Rain = 0
KSDS 201610Z 20010KT 29/15 A3016 RMK A01 T02880153  RH  046%=      5-min Rain = 0
KSDS 201615Z 20010KT 29/15 A3015 RMK A01 T02890152  RH  045%=      5-min Rain = 0
KSDS 201620Z 20010KT 29/15 A3015 RMK A01 T02930153  RH  045%=      5-min Rain = 0
KSDS 201625Z 20009G14KT 30/15 A3015 RMK A01 T02980152  RH  043%=      5-min Rain = 0
KSDS 201630Z 18010KT 30/15 A3015 RMK A01 T03040150  RH  041%=      5-min Rain = 0
KSDS 201635Z 19009G15KT 31/15 A3015 RMK A01 T03080151  RH  040%=      5-min Rain = 0
KSDS 201640Z 18010KT 31/15 A3016 RMK A01 T03090147  RH  039%=      5-min Rain = 0
KSDS 201645Z 18010G15KT 32/15 A3016 RMK A01 T03180148  RH  038%=      5-min Rain = 0
KSDS 201650Z 18009G14KT 31/15 A3016 RMK A01 T03140148  RH  038%=      5-min Rain = 0
KSDS 201655Z 17009G16KT 31/14 A3016 RMK A01 T03090142  RH  038%=      5-min Rain = 0
KSDS 201700Z 15009KT 31/14 A3016 RMK A01 T03080139  RH  037%=      5-min Rain = 0
KSDS 201705Z 16009G14KT 31/14 A3015 RMK A01 T03080141  RH  038%=      5-min Rain = 0
KSDS 201710Z 17008KT 31/15 A3015 RMK A01 T03100145  RH  038%=      5-min Rain = 0
KSDS 201715Z 17009G14KT 31/14 A3015 RMK A01 T03100143  RH  038%=      5-min Rain = 0
KSDS 201720Z 16010KT 31/14 A3015 RMK A01 T03090143  RH  038%=      5-min Rain = 0
KSDS 201725Z 17009KT 31/14 A3015 RMK A01 T03110141  RH  037%=      5-min Rain = 0
KSDS 201730Z 16008KT 31/15 A3015 RMK A01 T03110145  RH  038%=      5-min Rain = 0
KSDS 201735Z 16008KT 31/15 A3015 RMK A01 T03140146  RH  038%=      5-min Rain = 0
KSDS 201740Z 16007G12KT 32/14 A3015 RMK A01 T03150144  RH  037%=      5-min Rain = 0
KSDS 201745Z 15009KT 32/14 A3015 RMK A01 T03160141  RH  036%=      5-min Rain = 0
KSDS 201750Z 16009G14KT 32/14 A3015 RMK A01 T03150142  RH  036%=      5-min Rain = 0
KSDS 201755Z 16009KT 32/14 A3015 RMK A01 T03160139  RH  035%=      5-min Rain = 0
KSDS 201800Z 18008KT 32/14 A3015 RMK A01 T03170143  RH  036%=      5-min Rain = 0
KSDS 201805Z 16007KT 32/14 A3015 RMK A01 T03180141  RH  036%=      5-min Rain = 0
KSDS 201810Z 18008KT 32/14 A3015 RMK A01 T03180136  RH  035%=      5-min Rain = 0
KSDS 201815Z 20008KT 32/14 A3015 RMK A01 T03160138  RH  035%=      5-min Rain = 0
KSDS 201820Z 18007G12KT 32/14 A3014 RMK A01 T03190140  RH  035%=      5-min Rain = 0
KSDS 201825Z 20008KT 32/14 A3014 RMK A01 T03210138  RH  034%=      5-min Rain = 0
KSDS 201830Z 17007KT 32/14 A3014 RMK A01 T03230137  RH  034%=      5-min Rain = 0
KSDS 201835Z 16006KT 32/14 A3014 RMK A01 T03240141  RH  034%=      5-min Rain = 0
KSDS 201840Z 17008KT 32/14 A3014 RMK A01 T03240136  RH  033%=      5-min Rain = 0
KSDS 201845Z 17006KT 33/14 A3014 RMK A01 T03280139  RH  033%=      5-min Rain = 0
KSDS 201850Z 14009KT 33/14 A3014 RMK A01 T03270139  RH  034%=      5-min Rain = 0
KSDS 201855Z 15010KT 33/14 A3014 RMK A01 T03300136  RH  032%=      5-min Rain = 0
KSDS 201900Z 14009KT 33/13 A3014 RMK A01 T03290133  RH  032%=      5-min Rain = 0
KSDS 201905Z 16008G14KT 33/13 A3014 RMK A01 T03290132  RH  032%=      5-min Rain = 0
KSDS 201910Z 16008KT 33/14 A3013 RMK A01 T03310135  RH  032%=      5-min Rain = 0
KSDS 201915Z 16008G13KT 33/13 A3013 RMK A01 T03330134  RH  031%=      5-min Rain = 0
KSDS 201920Z 17007KT 33/14 A3013 RMK A01 T03320135  RH  032%=      5-min Rain = 0
KSDS 201925Z 14007KT 34/13 A3013 RMK A01 T03370131  RH  030%=      5-min Rain = 0
KSDS 201930Z 14008KT 34/13 A3013 RMK A01 T03420129  RH  029%=      5-min Rain = 0
KSDS 201935Z 14009G14KT 34/12 A3013 RMK A01 T03420124  RH  028%=      5-min Rain = 0
KSDS 201940Z 14008G14KT 34/12 A3013 RMK A01 T03420121  RH  027%=      5-min Rain = 0
KSDS 201945Z 15006KT 34/12 A3013 RMK A01 T03410122  RH  028%=      5-min Rain = 0
KSDS 201950Z 17008G13KT 35/10 A3012 RMK A01 T03450095  RH  022%=      5-min Rain = 0
KSDS 201955Z 15007KT 35/09 A3012 RMK A01 T03480094  RH  022%=      5-min Rain = 0
KSDS 202000Z 12010G16KT 35/11 A3012 RMK A01 T03460108  RH  024%=      5-min Rain = 0
KSDS 202005Z 13009KT 34/11 A3012 RMK A01 T03420107  RH  025%=      5-min Rain = 0
KSDS 202010Z 15009KT 35/11 A3011 RMK A01 T03470111  RH  025%=      5-min Rain = 0
KSDS 202015Z 17009KT 35/11 A3011 RMK A01 T03460113  RH  025%=      5-min Rain = 0
KSDS 202020Z 14010G15KT 35/10 A3011 RMK A01 T03460101  RH  023%=      5-min Rain = 0
KSDS 202025Z 13011G16KT 34/10 A3011 RMK A01 T03440104  RH  024%=      5-min Rain = 0
KSDS 202030Z 16010KT 34/09 A3011 RMK A01 T03430091  RH  022%=      5-min Rain = 0
KSDS 202035Z 18009KT 34/10 A3011 RMK A01 T03420097  RH  023%=      5-min Rain = 0
KSDS 202040Z 14008G15KT 34/10 A3011 RMK A01 T03420101  RH  024%=      5-min Rain = 0
KSDS 202045Z 16006KT 34/11 A3011 RMK A01 T03430112  RH  025%=      5-min Rain = 0
KSDS 202050Z 13010G15KT 34/11 A301 RMK A01 T03440114  RH  026%=      5-min Rain = 0
KSDS 202055Z 14010G17KT 34/10 A301 RMK A01 T03440104  RH  024%=      5-min Rain = 0
KSDS 202100Z 13011KT 35/09 A301 RMK A01 T03470091  RH  021%=      5-min Rain = 0
KSDS 202105Z 15010KT 35/08 A301 RMK A01 T03480075  RH  019%=      5-min Rain = 0
KSDS 202110Z 15008G13KT 35/09 A3009 RMK A01 T03470090  RH  021%=      5-min Rain = 0
KSDS 202115Z 18009G14KT 35/10 A3009 RMK A01 T03490100  RH  023%=      5-min Rain = 0
KSDS 202120Z 19005KT 35/10 A3009 RMK A01 T03470104  RH  024%=      5-min Rain = 0
KSDS 202125Z 16009G17KT 35/11 A3008 RMK A01 T03520110  RH  024%=      5-min Rain = 0
KSDS 202130Z 14011G17KT 35/12 A3008 RMK A01 T03510116  RH  025%=      5-min Rain = 0
KSDS 202135Z 13011KT 35/11 A3008 RMK A01 T03500111  RH  024%=      5-min Rain = 0
KSDS 202140Z 12011G16KT 35/11 A3008 RMK A01 T03530109  RH  024%=      5-min Rain = 0
KSDS 202145Z 12011G16KT 35/10 A3008 RMK A01 T03530104  RH  023%=      5-min Rain = 0
KSDS 202150Z 12011KT 34/10 A3008 RMK A01 T03430103  RH  024%=      5-min Rain = 0
KSDS 202155Z 12010G15KT 35/10 A3008 RMK A01 T03450103  RH  024%=      5-min Rain = 0
KSDS 202200Z 14012KT 34/09 A3007 RMK A01 T03420093  RH  022%=      5-min Rain = 0
KSDS 202205Z 14009KT 35/09 A3007 RMK A01 T03480093  RH  022%=      5-min Rain = 0
KSDS 202210Z 14007KT 36/09 A3007 RMK A01 T03550089  RH  020%=      5-min Rain = 0
KSDS 202215Z 13008G14KT 36/09 A3007 RMK A01 T03580092  RH  020%=      5-min Rain = 0
KSDS 202220Z 14012KT 34/10 A3007 RMK A01 T03440097  RH  023%=      5-min Rain = 0
KSDS 202225Z 15009KT 34/10 A3007 RMK A01 T03380103  RH  025%=      5-min Rain = 0
KSDS 202230Z 13007G14KT 34/11 A3007 RMK A01 T03360113  RH  027%=      5-min Rain = 0
KSDS 202235Z 12011G18KT 34/11 A3007 RMK A01 T03410112  RH  026%=      5-min Rain = 0
KSDS 202240Z 13012KT 34/11 A3007 RMK A01 T03430108  RH  025%=      5-min Rain = 0
KSDS 202245Z 12009G14KT 34/11 A3007 RMK A01 T03380106  RH  025%=      5-min Rain = 0
KSDS 202250Z 12012G17KT 34/10 A3006 RMK A01 T03350103  RH  025%=      5-min Rain = 0
KSDS 202255Z 12011KT 34/10 A3006 RMK A01 T03350100  RH  024%=      5-min Rain = 0
KSDS 202300Z 12011KT 34/10 A3006 RMK A01 T03350100  RH  024%=      5-min Rain = 0
KSDS 202305Z 13011KT 33/10 A3007 RMK A01 T03340103  RH  025%=      5-min Rain = 0
KSDS 202310Z 13012KT 33/10 A3007 RMK A01 T03340099  RH  025%=      5-min Rain = 0
KSDS 202315Z 13011G16KT 33/10 A3007 RMK A01 T03340100  RH  025%=      5-min Rain = 0
KSDS 202320Z 13013G18KT 33/10 A3007 RMK A01 T03340103  RH  025%=      5-min Rain = 0
KSDS 202325Z 14009G14KT 34/11 A3007 RMK A01 T03360107  RH  026%=      5-min Rain = 0
KSDS 202330Z 12011KT 34/11 A3007 RMK A01 T03390108  RH  025%=      5-min Rain = 0
KSDS 202335Z 14012G18KT 34/11 A3007 RMK A01 T03410109  RH  025%=      5-min Rain = 0
KSDS 202340Z 14011KT 34/11 A3007 RMK A01 T03350110  RH  026%=      5-min Rain = 0
KSDS 202345Z 13013KT 33/11 A3007 RMK A01 T03340108  RH  026%=      5-min Rain = 0
KSDS 202350Z 13013KT 33/11 A3007 RMK A01 T03340108  RH  026%=      5-min Rain = 0
KSDS 202355Z 14012KT 33/11 A3007 RMK A01 T03330106  RH  026%=      5-min Rain = 0
KSDS 210000Z 13012KT 33/10 A3007 RMK A01 T03320104  RH  026%=      5-min Rain = 0
KSDS 210005Z 13010KT 33/10 A3007 RMK A01 T03310102  RH  025%=      5-min Rain = 0
KSDS 210010Z 13009G14KT 33/10 A3007 RMK A01 T03290100  RH  025%=      5-min Rain = 0
KSDS 210015Z 13010KT 33/10 A3007 RMK A01 T03280099  RH  025%=      5-min Rain = 0
KSDS 210020Z 13011KT 33/10 A3007 RMK A01 T03280099  RH  025%=      5-min Rain = 0
KSDS 210025Z 13010KT 33/10 A3007 RMK A01 T03270100  RH  026%=      5-min Rain = 0
KSDS 210030Z 13010KT 33/10 A3007 RMK A01 T03270104  RH  026%=      5-min Rain = 0
KSDS 210035Z 14010KT 33/10 A3007 RMK A01 T03270099  RH  025%=      5-min Rain = 0
KSDS 210040Z 13010KT 33/09 A3007 RMK A01 T03280089  RH  024%=      5-min Rain = 0
KSDS 210045Z 14010KT 33/08 A3007 RMK A01 T03300082  RH  022%=      5-min Rain = 0
KSDS 210050Z 13009KT 33/08 A3007 RMK A01 T03290081  RH  022%=      5-min Rain = 0
KSDS 210055Z 13009KT 33/08 A3007 RMK A01 T03280082  RH  023%=      5-min Rain = 0
KSDS 210100Z 13009KT 33/09 A3008 RMK A01 T03260086  RH  023%=      5-min Rain = 0
KSDS 210105Z 14008KT 32/09 A3008 RMK A01 T03230089  RH  024%=      5-min Rain = 0
KSDS 210110Z 14007KT 32/09 A3008 RMK A01 T03180092  RH  026%=      5-min Rain = 0
KSDS 210115Z 14007KT 31/10 A3008 RMK A01 T03130095  RH  027%=      5-min Rain = 0
KSDS 210120Z 13007KT 31/10 A3008 RMK A01 T03080097  RH  028%=      5-min Rain = 0
KSDS 210125Z 13008KT 31/10 A3008 RMK A01 T03050100  RH  029%=      5-min Rain = 0
KSDS 210130Z 13008KT 30/10 A3008 RMK A01 T03020102  RH  030%=      5-min Rain = 0
KSDS 210135Z 13007KT 30/10 A3008 RMK A01 T02970103  RH  031%=      5-min Rain = 0
KSDS 210140Z 13007KT 29/10 A3008 RMK A01 T02910104  RH  032%=      5-min Rain = 0
KSDS 210145Z 13007KT 29/11 A3009 RMK A01 T02850105  RH  034%=      5-min Rain = 0
KSDS 210150Z 13008KT 28/11 A3009 RMK A01 T02790105  RH  035%=      5-min Rain = 0
KSDS 210155Z 13008KT 28/11 A3009 RMK A01 T02760106  RH  036%=      5-min Rain = 0
KSDS 210200Z 13009KT 27/11 A3009 RMK A01 T02730106  RH  037%=      5-min Rain = 0
KSDS 210205Z 13009KT 27/11 A3009 RMK A01 T02710107  RH  037%=      5-min Rain = 0
KSDS 210210Z 13009KT 27/11 A3009 RMK A01 T02700107  RH  038%=      5-min Rain = 0
KSDS 210215Z 13009KT 27/11 A3009 RMK A01 T02700108  RH  038%=      5-min Rain = 0
KSDS 210220Z 13008KT 27/11 A3009 RMK A01 T02700108  RH  038%=      5-min Rain = 0
KSDS 210225Z 14008KT 27/11 A3009 RMK A01 T02680108  RH  038%=      5-min Rain = 0
KSDS 210230Z 14008KT 27/11 A3009 RMK A01 T02670109  RH  038%=      5-min Rain = 0
KSDS 210235Z 14007KT 26/11 A301 RMK A01 T02640109  RH  039%=      5-min Rain = 0
KSDS 210240Z 14007KT 26/11 A301 RMK A01 T02620109  RH  040%=      5-min Rain = 0
KSDS 210245Z 14007KT 26/11 A301 RMK A01 T02590110  RH  041%=      5-min Rain = 0
KSDS 210250Z 14007KT 26/11 A301 RMK A01 T02560110  RH  041%=      5-min Rain = 0
KSDS 210255Z 15007KT 25/11 A301 RMK A01 T02530110  RH  042%=      5-min Rain = 0
KSDS 210300Z 14007KT 25/11 A3011 RMK A01 T02500110  RH  043%=      5-min Rain = 0
KSDS 210305Z 14008KT 25/11 A3011 RMK A01 T02480110  RH  043%=      5-min Rain = 0
KSDS 210310Z 14010KT 25/11 A301 RMK A01 T02490110  RH  043%=      5-min Rain = 0
KSDS 210315Z 13010KT 25/11 A301 RMK A01 T02510110  RH  043%=      5-min Rain = 0
KSDS 210320Z 13009KT 25/11 A301 RMK A01 T02500110  RH  043%=      5-min Rain = 0
KSDS 210325Z 13008KT 25/11 A301 RMK A01 T02490110  RH  043%=      5-min Rain = 0
KSDS 210330Z 13008KT 25/11 A301 RMK A01 T02480110  RH  043%=      5-min Rain = 0
KSDS 210335Z 14007KT 25/11 A3011 RMK A01 T02500109  RH  043%=      5-min Rain = 0
KSDS 210340Z 15007KT 25/11 A3011 RMK A01 T02490109  RH  043%=      5-min Rain = 0
KSDS 210345Z 15007KT 25/11 A3011 RMK A01 T02490108  RH  043%=      5-min Rain = 0
KSDS 210350Z 15008KT 25/11 A3011 RMK A01 T02480108  RH  043%=      5-min Rain = 0
KSDS 210355Z 15007KT 25/11 A3011 RMK A01 T02480108  RH  043%=      5-min Rain = 0
KSDS 210400Z 15008KT 25/11 A3011 RMK A01 T02500108  RH  042%=      5-min Rain = 0
KSDS 210405Z 15008KT 26/11 A3011 RMK A01 T02550107  RH  041%=      5-min Rain = 0
KSDS 210410Z 14009KT 26/11 A3011 RMK A01 T02610107  RH  039%=      5-min Rain = 0
KSDS 210415Z 15009KT 26/11 A3011 RMK A01 T02640108  RH  039%=      5-min Rain = 0
KSDS 210420Z 15009KT 27/11 A3011 RMK A01 T02650108  RH  039%=      5-min Rain = 0
KSDS 210425Z 15009KT 27/11 A3012 RMK A01 T02660108  RH  038%=      5-min Rain = 0
KSDS 210430Z 15009KT 27/11 A3011 RMK A01 T02670108  RH  038%=      5-min Rain = 0
KSDS 210435Z 15009KT 27/11 A3011 RMK A01 T02670109  RH  038%=      5-min Rain = 0
KSDS 210440Z 15010KT 27/11 A3011 RMK A01 T02670109  RH  039%=      5-min Rain = 0
KSDS 210445Z 15010KT 27/11 A3011 RMK A01 T02670110  RH  039%=      5-min Rain = 0
KSDS 210450Z 15010KT 27/11 A3011 RMK A01 T02660110  RH  039%=      5-min Rain = 0
KSDS 210455Z 15010KT 26/11 A3011 RMK A01 T02640110  RH  039%=      5-min Rain = 0

Page generated in 0.0095 seconds.